Flight Track Log - Related Links

Times and Time Zones

All times are in EST time to prevent confusion due to time zone crossing. See the N27XP flight status page for this flight to view local times or setup timezone preferences in your user account.

Time Position Orientation Groundspeed Altitude Reporting Facility
EST Latitude Longitude Course Direction KTS MPH feet Rate Location/Type
Mon 02:37:36 PM 40.8667 -74.0500 323° Northwest 169 194 900  Level New York TRACON
Mon 02:38:36 PM 40.9000 -74.0833 323° Northwest 190 219 3,000 2,350 Climbing New York TRACON
Mon 02:39:36 PM 40.8833 -74.1667 255° West 235 270 5,600 2,900 Climbing New York TRACON
Mon 02:40:36 PM 40.8833 -74.2500 270° West 244 281 8,800 2,700 Climbing New York TRACON
Mon 02:41:36 PM 40.9000 -74.3500 282° West 252 290 11,000 1,567 Climbing New York TRACON
Mon 02:43:59 PM 40.8178 -74.5522 242° Southwest 284 327 14,100 1,642 Climbing New York Center
Mon 02:44:57 PM 40.7756 -74.6322 235° Southwest 284 327 16,500 2,118 Climbing New York Center
Mon 02:45:58 PM 40.7356 -74.7119 237° Southwest 271 312 18,300 1,438 Climbing New York Center
Mon 02:46:58 PM 40.6911 -74.7861 232° Southwest 262 302 19,400 1,140 Climbing New York Center
Mon 02:47:59 PM 40.6469 -74.8656 234° Southwest 262 302 20,600 1,169 Climbing New York Center
Mon 02:48:56 PM 40.6000 -74.9556 236° Southwest 278 320 21,700 1,220 Climbing New York Center
Mon 02:49:57 PM 40.5531 -75.0431 235° Southwest 289 333 23,000 1,240 Climbing New York Center
Mon 02:50:57 PM 40.5022 -75.1189 229° Southwest 289 333 24,200 1,180 Climbing New York Center
Mon 02:51:59 PM 40.4514 -75.2003 231° Southwest 289 333 25,400 1,200 Climbing New York Center
Mon 02:52:57 PM 40.4069 -75.2739 232° Southwest 289 333 26,600 1,210 Climbing New York Center
Mon 02:53:58 PM 40.3619 -75.3581 235° Southwest 289 333 27,800 1,091 Climbing New York Center
Mon 02:54:58 PM 40.3169 -75.4422 235° Southwest 289 333 28,800 942 Climbing New York Center
Mon 02:55:59 PM 40.2700 -75.5233 233° Southwest 283 326 29,700 958 Climbing New York Center
Mon 02:56:57 PM 40.2189 -75.6039 230° Southwest 283 326 30,700 950 Climbing New York Center
Mon 02:57:59 PM 40.1675 -75.6819 229° Southwest 288 331 31,600 900 Climbing New York Center
Mon 02:58:57 PM 40.1142 -75.7625 229° Southwest 294 338 32,500 915 Climbing New York Center
Mon 02:59:57 PM 40.0631 -75.8372 228° Southwest 294 338 33,400 885 Climbing New York Center
Mon 03:00:59 PM 40.0117 -75.9150 229° Southwest 294 338 34,300 843 Climbing New York Center
Mon 03:01:58 PM 39.9567 -75.9814 223° Southwest 287 330 35,100 756 Climbing New York Center
Mon 03:02:58 PM 39.8953 -76.0497 221° Southwest 282 325 35,800 454 Climbing New York Center
Mon 03:03:57 PM 39.8381 -76.1186 223° Southwest 282 325 36,000 99 Climbing New York Center
Mon 03:04:59 PM 39.7722 -76.1892 219° Southwest 287 330 36,000  Level New York Center
Mon 03:07:10 PM 39.6319 -76.3567 223° Southwest 309 356 36,000  Level Washington Center
Mon 03:08:10 PM 39.5647 -76.4342 222° Southwest 322 371 36,000  Level Washington Center
Mon 03:09:10 PM 39.4956 -76.5086 220° Southwest 322 371 36,000  Level Washington Center
Mon 03:10:11 PM 39.4178 -76.5936 220° Southwest 327 376 36,000  Level Washington Center
Mon 03:11:13 PM 39.3503 -76.6706 221° Southwest 327 376 36,000  Level Washington Center
Mon 03:12:10 PM 39.2831 -76.7472 221° Southwest 327 376 36,000  Level Washington Center
Mon 03:13:10 PM 39.2178 -76.8239 222° Southwest 327 376 36,000  Level Washington Center
Mon 03:14:10 PM 39.1792 -76.9250 244° Southwest 322 371 36,000 -50 Level Washington Center
Mon 03:15:10 PM 39.1342 -77.0258 240° Southwest 322 371 35,900 -793 Descending Washington Center
Mon 03:16:11 PM 39.0747 -77.1075 227° Southwest 322 371 34,400 -1,574 Descending Washington Center
Mon 03:17:12 PM 39.0153 -77.1944 229° Southwest 322 371 32,700 -1,210 Descending Washington Center
Mon 03:18:10 PM 38.9475 -77.2731 222° Southwest 327 376 32,000 -356 Descending Washington Center
Mon 03:19:10 PM 38.8694 -77.3461 216° Southwest 339 390 32,000  Level Washington Center
Mon 03:20:10 PM 38.7933 -77.4189 217° Southwest 344 396 32,000  Level Washington Center
Mon 03:21:11 PM 38.7169 -77.4914 217° Southwest 349 402 32,000  Level Washington Center
Mon 03:22:12 PM 38.6556 -77.5508 217° Southwest 349 402 32,000  Level Washington Center
Mon 03:23:12 PM 38.5731 -77.6311 217° Southwest 349 402 32,000  Level Washington Center
Mon 03:24:10 PM 38.4967 -77.7033 217° Southwest 349 402 32,000  Level Washington Center
Mon 03:25:11 PM 38.4183 -77.7753 216° Southwest 349 402 32,000  Level Washington Center
Mon 03:26:12 PM 38.3419 -77.8472 216° Southwest 349 402 32,000  Level Washington Center
Mon 03:27:10 PM 38.2675 -77.9189 217° Southwest 349 402 32,000  Level Washington Center
Mon 03:28:11 PM 38.1911 -77.9881 215° Southwest 349 402 32,000  Level Washington Center
Mon 03:29:12 PM 38.1144 -78.0619 217° Southwest 349 402 32,000  Level Washington Center
Mon 03:30:12 PM 38.0400 -78.1308 216° Southwest 349 402 32,000  Level Washington Center
Mon 03:31:11 PM 37.9553 -78.1964 211° Southwest 341 392 32,000  Level Washington Center
Mon 03:32:11 PM 37.8811 -78.2411 205° Southwest 327 376 32,000  Level Washington Center
Mon 03:33:12 PM 37.7986 -78.2961 208° Southwest 327 376 32,000  Level Washington Center
Mon 03:34:12 PM 37.7161 -78.3483 207° Southwest 333 383 32,000  Level Washington Center
Mon 03:35:10 PM 37.6336 -78.4031 208° Southwest 333 383 32,000  Level Washington Center
Mon 03:36:10 PM 37.5403 -78.4597 206° Southwest 333 383 32,000 -49 Level Washington Center
Mon 03:37:12 PM 37.4578 -78.5142 208° Southwest 333 383 31,900 -829 Descending Washington Center
Mon 03:38:13 PM 37.3750 -78.5686 208° Southwest 333 383 30,300 -4,487 Descending Washington Center
Mon 03:39:11 PM 37.2881 -78.6253 207° Southwest 338 389 23,000 -2,017 Descending Washington Center
Mon 03:40:12 PM 37.1992 -78.6792 206° Southwest 344 396 26,300 650 Climbing Washington Center
Mon 03:41:11 PM 37.1228 -78.7281 207° Southwest 351 404 24,300 -1,678 Descending Washington Center
Mon 03:42:10 PM 37.0400 -78.7819 207° Southwest 346 398 23,000 -1,500 Descending Washington Center
Mon 03:43:11 PM 36.9572 -78.8281 204° Southwest 340 391 21,300 -1,672 Descending Washington Center
Mon 03:44:12 PM 36.8592 -78.8317 182° South 335 386 19,600 -1,438 Descending Washington Center
Mon 03:45:12 PM 36.7633 -78.8250 177° South 346 398 18,400 -1,200 Descending Washington Center
Mon 03:46:12 PM 36.6781 -78.8214 178° South 346 398 17,200 -1,220 Descending Washington Center
Mon 03:47:10 PM 36.5758 -78.8197 179° South 346 398 16,000 -605 Descending Washington Center
Mon 03:48:11 PM 36.4778 -78.8158 178° South 346 398 16,000  Level Washington Center
Mon 03:49:11 PM 36.3717 -78.8086 177° South 346 398 16,000  Level Washington Center
Mon 03:50:12 PM 36.2778 -78.8022 177° South 346 398 16,000  Level Washington Center
Mon 03:51:10 PM 36.1842 -78.7986 178° South 346 398 16,000 -126 Level Washington Center
Mon 03:51:47 PM 36.1278 -78.7989 180° South 339 390 15,800 -787 Descending Washington Center
Mon 03:52:11 PM 36.0986 -78.7975 178° South 346 398 15,200 -1,880 Descending Washington Center
Mon 03:53:10 PM 36.0047 -78.7911 177° South 346 398 13,200 -2,129 Descending Washington Center
Mon 03:53:13 PM 35.9922 -78.7933 188° South 340 391 13,000 -1,500 Descending Washington Center
Mon 03:54:10 PM 35.9111 -78.7900 178° South 346 398 11,700 -1,400 Descending Washington Center
Mon 03:54:13 PM 35.8983 -78.7894 178° South 338 389 11,600 -1,161 Descending Washington Center
Mon 03:55:12 PM 35.8269 -78.8097 193° South 333 383 10,500 -1,179 Descending Washington Center
Mon 03:56:10 PM 35.7628 -78.8686 217° Southwest 299 344 9,300 -1,220 Descending Washington Center
Mon 03:57:10 PM 35.7069 -78.9225 218° Southwest 282 325 8,100 -1,240 Descending Washington Center
Mon 03:58:11 PM 35.6536 -78.9714 217° Southwest 261 300 6,800 -1,220 Descending Washington Center
Mon 03:59:13 PM 35.6000 -79.0203 217° Southwest 255 293 5,600 -1,261 Descending Washington Center
Mon 04:00:10 PM 35.5464 -79.0689 216° Southwest 250 288 4,300 -821 Descending Washington Center
Mon 04:01:10 PM 35.4864 -79.1200 215° Southwest 250 288 4,000 -300 Descending Washington Center
Mon 04:03:00 PM 35.3742 -79.2425 219° Southwest  Level FlightAware Approximate

Login

Don't have an account? Register now (free) for customized features, flight alerts, and more!